createdAt,value
2023-03-25T00:01:09.059Z,98367.44
2023-03-25T00:03:43.017Z,98367.34
2023-03-25T00:06:10.751Z,98369.97
2023-03-25T00:08:37.463Z,98371.63
2023-03-25T00:11:06.664Z,98369.25
2023-03-25T00:13:34.050Z,98371.16
2023-03-25T00:16:01.651Z,98366.16
2023-03-25T00:18:33.418Z,98368.31
2023-03-25T00:21:02.461Z,98381.84
2023-03-25T00:23:30.608Z,98371.59
2023-03-25T00:26:00.541Z,98383.31
2023-03-25T00:28:34.411Z,98382.81
2023-03-25T00:31:03.129Z,98371.34
2023-03-25T00:33:30.089Z,98378.63
2023-03-25T00:35:59.239Z,98376.00
2023-03-25T00:38:33.303Z,98376.13
2023-03-25T00:41:08.971Z,98375.53
2023-03-25T00:43:35.305Z,98387.72
2023-03-25T00:46:02.073Z,98372.22
2023-03-25T00:48:28.453Z,98372.31
2023-03-25T00:50:54.840Z,98381.88
2023-03-25T00:53:21.277Z,98376.75
2023-03-25T00:55:47.778Z,98365.50
2023-03-25T00:58:14.239Z,98370.78
2023-03-25T01:00:41.238Z,98361.81
2023-03-25T01:03:09.615Z,98383.66
2023-03-25T01:05:36.056Z,98373.88
2023-03-25T01:08:02.418Z,98368.63
2023-03-25T01:10:28.708Z,98373.88
2023-03-25T01:12:55.019Z,98374.69
2023-03-25T01:15:21.478Z,98378.28
2023-03-25T01:17:47.870Z,98367.66
2023-03-25T01:20:14.315Z,98369.31
2023-03-25T01:22:40.781Z,98361.31
2023-03-25T01:25:07.519Z,98370.75
2023-03-25T01:27:33.955Z,98361.75
2023-03-25T01:30:00.361Z,98360.81
2023-03-25T01:32:29.026Z,98372.06
2023-03-25T01:34:55.361Z,98357.94
2023-03-25T01:37:22.603Z,98365.69
2023-03-25T01:39:48.951Z,98364.03
2023-03-25T01:42:15.365Z,98368.34
2023-03-25T01:44:44.385Z,98359.63
2023-03-25T01:47:10.704Z,98353.28
2023-03-25T01:49:44.065Z,98354.22
2023-03-25T01:52:21.284Z,98355.28
2023-03-25T01:54:50.182Z,98348.00
2023-03-25T01:57:20.488Z,98343.69
2023-03-25T01:59:47.946Z,98341.06
2023-03-25T02:02:17.662Z,98351.47
2023-03-25T02:05:10.991Z,98347.28
2023-03-25T02:07:42.414Z,98333.66
2023-03-25T02:10:11.822Z,98358.28
2023-03-25T02:12:38.184Z,98332.91
2023-03-25T02:15:07.772Z,98338.19
2023-03-25T02:18:01.683Z,98341.06
2023-03-25T02:20:49.449Z,98335.56
2023-03-25T02:23:28.143Z,98346.91
2023-03-25T02:26:12.833Z,98353.16
2023-03-25T02:28:55.956Z,98338.19
2023-03-25T02:31:48.672Z,98345.09
2023-03-25T02:34:56.700Z,98334.47
2023-03-25T02:37:37.239Z,98337.94
2023-03-25T02:40:07.683Z,98338.06
2023-03-25T02:42:45.049Z,98340.69
2023-03-25T02:45:30.152Z,98336.41
2023-03-25T02:48:06.189Z,98323.13
2023-03-25T02:50:45.583Z,98334.47
2023-03-25T02:53:19.286Z,98347.63
2023-03-25T02:55:47.906Z,98330.03
2023-03-25T02:58:18.647Z,98327.53
2023-03-25T03:00:46.348Z,98332.91
2023-03-25T03:03:12.844Z,98316.16
2023-03-25T03:05:44.316Z,98309.22
2023-03-25T03:08:26.373Z,98309.34
2023-03-25T03:13:44.384Z,98300.38
2023-03-25T03:16:35.978Z,98290.94
2023-03-25T03:19:05.528Z,98303.97
2023-03-25T03:21:51.613Z,98307.81
2023-03-25T03:24:38.592Z,98319.19
2023-03-25T03:27:34.136Z,98302.78
2023-03-25T03:30:40.416Z,98310.56
2023-03-25T03:33:36.991Z,98286.75
2023-03-25T03:36:16.136Z,98292.88
2023-03-25T03:38:52.595Z,98300.63
2023-03-25T03:41:24.177Z,98308.53
2023-03-25T03:43:53.693Z,98298.69
2023-03-25T03:46:28.857Z,98295.09
2023-03-25T03:48:58.331Z,98306.47
2023-03-25T03:51:33.903Z,98306.34
2023-03-25T03:54:06.809Z,98306.34
2023-03-25T03:56:46.564Z,98306.34
2023-03-25T03:59:24.650Z,98308.13
2023-03-25T04:01:55.801Z,98309.00
2023-03-25T04:04:27.256Z,98307.31
2023-03-25T04:07:15.350Z,98304.09
2023-03-25T04:09:57.019Z,98298.81
2023-03-25T04:12:29.352Z,98303.16
2023-03-25T04:14:56.845Z,98303.16
2023-03-25T04:17:24.253Z,98298.00
2023-03-25T04:19:53.606Z,98306.84
2023-03-25T04:22:21.874Z,98311.53
2023-03-25T04:24:49.698Z,98324.09
2023-03-25T04:27:17.183Z,98303.53
2023-03-25T04:29:47.826Z,98302.94
2023-03-25T04:32:15.265Z,98312.91
2023-03-25T04:34:42.290Z,98314.22
2023-03-25T04:37:08.940Z,98299.59
2023-03-25T04:39:35.581Z,98298.88
2023-03-25T04:42:03.573Z,98298.28
2023-03-25T04:44:33.796Z,98305.50
2023-03-25T04:47:02.330Z,98309.06
2023-03-25T04:49:29.183Z,98320.53
2023-03-25T04:51:56.978Z,98312.66
2023-03-25T04:54:24.075Z,98319.69
2023-03-25T04:56:51.900Z,98309.06
2023-03-25T04:59:19.960Z,98309.91
2023-03-25T05:01:47.327Z,98307.38
2023-03-25T05:04:17.651Z,98296.75
2023-03-25T05:06:50.542Z,98310.03
2023-03-25T05:09:19.805Z,98307.63
2023-03-25T05:11:47.044Z,98312.19
2023-03-25T05:14:16.132Z,98297.84
2023-03-25T05:16:43.792Z,98310.63
2023-03-25T05:19:10.495Z,98310.06
2023-03-25T05:21:39.274Z,98307.19
2023-03-25T05:24:10.229Z,98309.34
2023-03-25T05:26:39.754Z,98303.47
2023-03-25T05:29:15.914Z,98308.25
2023-03-25T05:31:48.951Z,98310.19
2023-03-25T05:34:17.226Z,98308.50
2023-03-25T05:36:44.112Z,98312.19
2023-03-25T05:39:11.058Z,98306.22
2023-03-25T05:41:40.857Z,98304.56
2023-03-25T05:44:09.512Z,98313.63
2023-03-25T05:46:36.098Z,98327.00
2023-03-25T05:49:03.089Z,98321.75
2023-03-25T05:51:38.572Z,98326.03
2023-03-25T05:54:11.001Z,98317.06
2023-03-25T05:56:38.281Z,98332.03
2023-03-25T05:59:04.985Z,98315.66
2023-03-25T06:01:34.180Z,98317.22
2023-03-25T06:04:02.387Z,98321.75
2023-03-25T06:06:30.514Z,98320.56
2023-03-25T06:08:57.033Z,98327.38
2023-03-25T06:11:23.616Z,98347.34
2023-03-25T06:13:50.305Z,98330.38
2023-03-25T06:16:29.953Z,98333.09
2023-03-25T06:18:59.708Z,98332.63
2023-03-25T06:21:32.962Z,98331.81
2023-03-25T06:24:01.714Z,98321.88
2023-03-25T06:26:28.362Z,98330.50
2023-03-25T06:28:55.285Z,98324.84
2023-03-25T06:31:26.662Z,98320.19
2023-03-25T06:33:54.921Z,98326.88
2023-03-25T06:36:21.619Z,98312.53
2023-03-25T06:38:49.522Z,98319.34
2023-03-25T06:41:20.306Z,98322.69
2023-03-25T06:43:47.993Z,98319.84
2023-03-25T06:46:14.809Z,98319.69
2023-03-25T06:48:41.371Z,98325.78
2023-03-25T06:51:08.217Z,98317.66
2023-03-25T06:53:34.834Z,98326.38
2023-03-25T06:56:01.480Z,98315.75
2023-03-25T06:58:34.771Z,98328.78
2023-03-25T07:01:07.289Z,98342.44
2023-03-25T07:03:38.907Z,98329.88
2023-03-25T07:06:06.458Z,98334.88
2023-03-25T07:08:33.717Z,98340.88
2023-03-25T07:11:05.780Z,98327.59
2023-03-25T07:13:32.403Z,98327.59
2023-03-25T07:15:59.556Z,98353.66
2023-03-25T07:18:26.817Z,98329.16
2023-03-25T07:20:53.864Z,98322.06
2023-03-25T07:23:20.657Z,98334.41
2023-03-25T07:25:47.351Z,98323.16
2023-03-25T07:28:14.204Z,98332.59
2023-03-25T07:30:40.839Z,98329.03
2023-03-25T07:33:07.559Z,98336.06
2023-03-25T07:35:34.155Z,98347.31
2023-03-25T07:38:01.054Z,98330.56
2023-03-25T07:40:27.693Z,98337.50
2023-03-25T07:42:54.277Z,98352.31
2023-03-25T07:45:20.876Z,98342.25
2023-03-25T07:47:50.438Z,98326.94
2023-03-25T07:50:18.489Z,98333.50
2023-03-25T07:52:46.064Z,98325.00
2023-03-25T07:55:12.810Z,98333.34
2023-03-25T07:57:41.666Z,98338.38
2023-03-25T08:00:10.884Z,98341.47
2023-03-25T08:02:37.645Z,98343.84
2023-03-25T08:05:05.818Z,98359.66
2023-03-25T08:07:33.173Z,98345.50
2023-03-25T08:09:59.722Z,98338.59
2023-03-25T08:12:26.423Z,98337.63
2023-03-25T08:14:52.893Z,98340.13
2023-03-25T08:17:19.336Z,98332.34
2023-03-25T08:19:46.209Z,98366.59
2023-03-25T08:22:12.729Z,98350.78
2023-03-25T08:24:39.221Z,98349.69
2023-03-25T08:27:14.092Z,98341.78
2023-03-25T08:29:42.994Z,98357.47
2023-03-25T08:32:09.525Z,98357.19
2023-03-25T08:34:39.828Z,98364.84
2023-03-25T08:37:11.222Z,98384.13
2023-03-25T08:39:40.184Z,98372.75
2023-03-25T08:42:08.395Z,98365.47
2023-03-25T08:44:35.666Z,98350.81
2023-03-25T08:47:02.276Z,98355.69
2023-03-25T08:49:28.938Z,98356.03
2023-03-25T08:51:57.904Z,98349.00
2023-03-25T08:54:29.028Z,98347.53
2023-03-25T08:56:55.684Z,98349.53
2023-03-25T08:59:22.467Z,98354.00
2023-03-25T09:01:49.191Z,98348.25
2023-03-25T09:04:16.111Z,98355.75
2023-03-25T09:06:47.959Z,98351.06
2023-03-25T09:09:29.912Z,98357.88
2023-03-25T09:14:30.785Z,98359.41
2023-03-25T09:16:57.093Z,98362.06
2023-03-25T09:19:23.593Z,98356.19
2023-03-25T09:21:50.143Z,98360.63
2023-03-25T09:24:16.456Z,98358.25
2023-03-25T09:26:42.880Z,98382.22
2023-03-25T09:29:09.444Z,98356.59
2023-03-25T09:31:35.805Z,98352.16
2023-03-25T09:34:02.248Z,98352.16
2023-03-25T09:36:28.553Z,98354.94
2023-03-25T09:38:54.881Z,98367.63
2023-03-25T09:41:23.851Z,98359.28
2023-03-25T09:44:02.922Z,98378.41
2023-03-25T09:46:29.402Z,98375.19
2023-03-25T09:48:57.128Z,98375.31
2023-03-25T09:51:28.532Z,98382.78
2023-03-25T09:54:08.872Z,98390.81
2023-03-25T09:56:41.902Z,98380.25
2023-03-25T09:59:15.960Z,98386.22
2023-03-25T10:02:12.668Z,98399.28
2023-03-25T10:05:04.037Z,98415.94
2023-03-25T10:07:47.938Z,98414.59
2023-03-25T10:10:33.081Z,98393.00
2023-03-25T10:13:51.914Z,98400.97
2023-03-25T10:16:47.986Z,98394.66
2023-03-25T10:19:25.105Z,98418.56
2023-03-25T10:22:13.087Z,98391.28
2023-03-25T10:24:46.984Z,98389.56
2023-03-25T10:27:21.093Z,98398.03
2023-03-25T10:29:53.086Z,98380.00
2023-03-25T10:32:35.896Z,98398.47
2023-03-25T10:35:06.541Z,98406.69
2023-03-25T10:37:36.451Z,98389.63
2023-03-25T10:40:16.575Z,98392.25
2023-03-25T10:43:16.899Z,98380.47
2023-03-25T10:45:45.743Z,98383.16
2023-03-25T10:48:25.437Z,98383.44
2023-03-25T10:51:10.091Z,98392.34
2023-03-25T10:53:37.807Z,98394.56
2023-03-25T10:56:08.138Z,98391.09
2023-03-25T10:58:38.368Z,98381.34
2023-03-25T11:01:17.644Z,98399.84
2023-03-25T11:03:46.115Z,98394.44
2023-03-25T11:06:29.560Z,98395.28
2023-03-25T11:09:34.158Z,98391.41
2023-03-25T11:12:02.432Z,98381.97
2023-03-25T11:14:30.382Z,98393.63
2023-03-25T11:17:00.353Z,98392.09
2023-03-25T11:19:31.374Z,98393.47
2023-03-25T11:22:07.512Z,98388.84
2023-03-25T11:24:40.196Z,98389.41
2023-03-25T11:27:08.748Z,98404.50
2023-03-25T11:29:37.182Z,98393.91
2023-03-25T11:32:12.969Z,98394.13
2023-03-25T11:34:41.972Z,98431.97
2023-03-25T11:37:20.230Z,98402.16
2023-03-25T11:39:55.576Z,98409.06
2023-03-25T11:42:42.280Z,98420.53
2023-03-25T11:45:35.852Z,98441.78
2023-03-25T11:48:11.354Z,98426.03
2023-03-25T11:50:38.153Z,98406.28
2023-03-25T11:53:06.120Z,98408.59
2023-03-25T11:55:41.453Z,98413.88
2023-03-25T11:58:18.833Z,98406.41
2023-03-25T12:00:59.770Z,98405.19
2023-03-25T12:03:27.854Z,98405.88
2023-03-25T12:06:15.957Z,98411.44
2023-03-25T12:08:50.298Z,98409.53
2023-03-25T12:11:23.816Z,98407.19
2023-03-25T12:14:19.785Z,98429.25
2023-03-25T12:17:23.132Z,98417.66
2023-03-25T12:19:53.885Z,98412.78
2023-03-25T12:22:38.527Z,98409.34
2023-03-25T12:25:17.152Z,98403.00
2023-03-25T12:27:55.393Z,98406.00
2023-03-25T12:30:33.169Z,98411.06
2023-03-25T12:33:21.949Z,98417.63
2023-03-25T12:36:01.845Z,98426.00
2023-03-25T12:39:14.819Z,98426.50
2023-03-25T12:42:12.831Z,98399.56
2023-03-25T12:45:06.479Z,98401.63
2023-03-25T12:47:41.963Z,98398.88
2023-03-25T12:50:16.392Z,98408.03
2023-03-25T12:52:54.771Z,98402.84
2023-03-25T12:55:36.400Z,98385.59
2023-03-25T12:58:18.123Z,98388.06
2023-03-25T13:01:01.244Z,98380.94
2023-03-25T13:03:47.684Z,98376.41
2023-03-25T13:06:53.911Z,98390.41
2023-03-25T13:09:29.616Z,98387.34
2023-03-25T13:12:04.597Z,98382.31
2023-03-25T13:14:36.779Z,98394.34
2023-03-25T13:17:10.648Z,98394.97
2023-03-25T13:19:41.130Z,98390.97
2023-03-25T13:22:19.776Z,98388.91
2023-03-25T13:24:51.309Z,98381.09
2023-03-25T13:27:18.443Z,98373.13
2023-03-25T13:29:57.556Z,98377.63
2023-03-25T13:32:29.860Z,98387.44
2023-03-25T13:35:08.953Z,98375.38
2023-03-25T13:37:38.672Z,98376.97
2023-03-25T13:40:11.546Z,98368.78
2023-03-25T13:42:58.271Z,98375.41
2023-03-25T13:45:27.333Z,98375.41
2023-03-25T13:48:16.772Z,98357.38
2023-03-25T13:50:43.198Z,98361.69
2023-03-25T13:53:17.169Z,98355.16
2023-03-25T13:56:11.884Z,98370.88
2023-03-25T13:59:25.992Z,98358.38
2023-03-25T14:02:07.658Z,98351.94
2023-03-25T14:04:58.578Z,98364.31
2023-03-25T14:07:34.089Z,98347.19
2023-03-25T14:10:13.769Z,98362.75
2023-03-25T14:12:44.854Z,98344.34
2023-03-25T14:15:21.654Z,98350.81
2023-03-25T14:17:50.818Z,98366.63
2023-03-25T14:20:24.339Z,98385.13
2023-03-25T14:22:57.282Z,98357.16
2023-03-25T14:25:37.778Z,98362.97
2023-03-25T14:28:05.078Z,98367.13
2023-03-25T14:30:32.726Z,98361.13
2023-03-25T14:33:03.015Z,98366.28
2023-03-25T14:35:41.674Z,98370.47
2023-03-25T14:38:08.340Z,98369.53
2023-03-25T14:40:59.652Z,98358.28
2023-03-25T14:43:48.513Z,98357.47
2023-03-25T14:46:20.336Z,98348.41
2023-03-25T14:48:52.675Z,98337.75
2023-03-25T14:51:43.695Z,98349.06
2023-03-25T14:54:15.924Z,98349.97
2023-03-25T14:57:05.347Z,98331.94
2023-03-25T14:59:39.365Z,98346.91
2023-03-25T15:02:16.139Z,98350.53
2023-03-25T15:04:44.438Z,98348.13
2023-03-25T15:07:16.250Z,98343.03
2023-03-25T15:09:55.892Z,98361.97
2023-03-25T15:19:03.484Z,98368.28
2023-03-25T15:31:43.713Z,98357.84
2023-03-25T15:34:34.413Z,98324.69
2023-03-25T15:37:45.020Z,98328.13
2023-03-25T15:40:33.508Z,98325.75
2023-03-25T15:43:18.618Z,98348.16
2023-03-25T15:46:03.880Z,98336.59
2023-03-25T15:49:01.547Z,98328.44
2023-03-25T15:51:41.284Z,98355.25
2023-03-25T15:54:23.033Z,98360.00
2023-03-25T15:56:54.222Z,98360.56
2023-03-25T15:59:30.520Z,98345.84
2023-03-25T16:02:00.820Z,98345.88
2023-03-25T16:04:39.039Z,98340.00
2023-03-25T16:07:08.977Z,98351.28
2023-03-25T16:09:41.676Z,98347.94
2023-03-25T16:12:10.536Z,98360.88
2023-03-25T16:14:39.356Z,98408.00
2023-03-25T16:17:07.839Z,98381.97
2023-03-25T16:19:44.539Z,98386.50
2023-03-25T16:22:23.968Z,98387.09
2023-03-25T16:24:51.579Z,98390.88
2023-03-25T16:27:25.533Z,98401.91
2023-03-25T16:29:53.992Z,98403.56
2023-03-25T16:32:24.215Z,98403.56
2023-03-25T16:34:53.881Z,98415.34
2023-03-25T16:37:22.060Z,98414.78
2023-03-25T16:39:53.443Z,98429.09
2023-03-25T16:42:24.433Z,98414.63
2023-03-25T16:44:51.253Z,98430.88
2023-03-25T16:47:18.705Z,98443.47
2023-03-25T16:49:48.476Z,98445.63
2023-03-25T16:52:19.619Z,98457.13
2023-03-25T16:55:14.880Z,98477.09
2023-03-25T16:57:41.477Z,98486.63
2023-03-25T17:00:18.453Z,98481.97
2023-03-25T17:02:48.529Z,98469.06
2023-03-25T17:05:24.639Z,98493.41
2023-03-25T17:07:59.114Z,98477.16
2023-03-25T17:10:28.656Z,98486.13
2023-03-25T17:13:02.559Z,98477.66
2023-03-25T17:15:34.573Z,98494.34
2023-03-25T17:18:06.051Z,98490.91
2023-03-25T17:20:45.008Z,98486.94
2023-03-25T17:23:18.041Z,98498.16
2023-03-25T17:25:53.918Z,98497.25
2023-03-25T17:28:31.020Z,98511.09
2023-03-25T17:30:57.868Z,98518.28
2023-03-25T17:33:34.138Z,98522.09
2023-03-25T17:36:03.360Z,98532.63
2023-03-25T17:38:36.457Z,98535.34
2023-03-25T17:41:06.418Z,98536.31
2023-03-25T17:43:36.976Z,98539.53
2023-03-25T17:46:06.072Z,98531.88
2023-03-25T17:48:32.712Z,98535.47
2023-03-25T17:51:00.472Z,98537.38
2023-03-25T17:53:27.336Z,98541.78
2023-03-25T17:55:54.824Z,98544.53
2023-03-25T17:58:22.669Z,98547.16
2023-03-25T18:00:50.935Z,98556.03
2023-03-25T18:03:22.873Z,98554.34
2023-03-25T18:05:56.010Z,98559.59
2023-03-25T18:08:24.792Z,98555.16
2023-03-25T18:10:53.423Z,98556.13
2023-03-25T18:13:21.895Z,98547.38
2023-03-25T18:15:51.533Z,98567.50
2023-03-25T18:18:24.200Z,98568.44
2023-03-25T18:20:52.407Z,98572.63
2023-03-25T18:23:19.331Z,98576.19
2023-03-25T18:25:46.388Z,98578.84
2023-03-25T18:28:14.149Z,98582.44
2023-03-25T18:30:46.502Z,98583.50
2023-03-25T18:33:15.604Z,98578.94
2023-03-25T18:35:43.651Z,98585.91
2023-03-25T18:38:24.384Z,98583.38
2023-03-25T18:40:52.526Z,98591.03
2023-03-25T18:43:20.031Z,98595.25
2023-03-25T18:45:47.261Z,98596.16
2023-03-25T18:48:17.689Z,98591.97
2023-03-25T18:50:50.290Z,98595.47
2023-03-25T18:53:17.049Z,98592.84
2023-03-25T18:55:45.907Z,98596.16
2023-03-25T18:58:23.889Z,98587.69
2023-03-25T19:00:52.352Z,98608.59
2023-03-25T19:03:20.800Z,98614.69
2023-03-25T19:05:47.739Z,98612.06
2023-03-25T19:08:19.402Z,98616.50
2023-03-25T19:10:47.103Z,98616.50
2023-03-25T19:13:14.259Z,98621.75
2023-03-25T19:15:41.083Z,98621.75
2023-03-25T19:18:07.667Z,98625.19
2023-03-25T19:20:35.923Z,98631.44
2023-03-25T19:23:04.250Z,98623.53
2023-03-25T19:25:30.947Z,98634.91
2023-03-25T19:27:57.524Z,98634.91
2023-03-25T19:30:25.273Z,98627.97
2023-03-25T19:32:59.333Z,98636.69
2023-03-25T19:35:26.534Z,98635.63
2023-03-25T19:37:55.682Z,98636.56
2023-03-25T19:40:24.804Z,98638.25
2023-03-25T19:42:54.923Z,98638.25
2023-03-25T19:45:21.788Z,98643.28
2023-03-25T19:47:48.906Z,98641.50
2023-03-25T19:50:20.970Z,98653.69
2023-03-25T19:52:49.455Z,98644.00
2023-03-25T19:55:17.636Z,98650.00
2023-03-25T19:57:45.784Z,98652.53
2023-03-25T20:00:15.840Z,98648.09
2023-03-25T20:02:48.283Z,98642.97
2023-03-25T20:05:16.776Z,98649.78
2023-03-25T20:07:45.431Z,98648.09
2023-03-25T20:10:20.027Z,98643.78
2023-03-25T20:12:48.951Z,98650.84
2023-03-25T20:15:17.354Z,98643.78
2023-03-25T20:17:44.200Z,98651.66
2023-03-25T20:20:13.208Z,98644.75
2023-03-25T20:22:40.834Z,98650.84
2023-03-25T20:25:09.503Z,98657.78
2023-03-25T20:27:36.208Z,98660.31
2023-03-25T20:30:05.670Z,98656.94
2023-03-25T20:32:40.450Z,98663.75
2023-03-25T20:35:09.034Z,98656.72
2023-03-25T20:37:36.967Z,98650.50
2023-03-25T20:40:06.288Z,98651.34
2023-03-25T20:42:32.788Z,98653.03
2023-03-25T20:44:59.289Z,98653.88
2023-03-25T20:47:28.174Z,98648.72
2023-03-25T20:49:54.710Z,98644.41
2023-03-25T20:52:21.599Z,98649.69
2023-03-25T20:54:49.434Z,98656.72
2023-03-25T20:57:16.514Z,98652.31
2023-03-25T20:59:43.139Z,98642.59
2023-03-25T21:02:10.960Z,98665.47
2023-03-25T21:04:38.258Z,98656.72
2023-03-25T21:07:05.045Z,98669.00
2023-03-25T21:09:31.738Z,98661.97
2023-03-25T21:11:58.194Z,98654.19
2023-03-25T21:17:12.108Z,98661.97
2023-03-25T21:19:38.504Z,98668.91
2023-03-25T21:22:04.881Z,98662.81
2023-03-25T21:24:34.285Z,98667.84
2023-03-25T21:27:00.690Z,98667.84
2023-03-25T21:29:27.348Z,98667.03
2023-03-25T21:31:53.931Z,98672.28
2023-03-25T21:34:21.864Z,98673.94
2023-03-25T21:36:48.599Z,98669.50
2023-03-25T21:39:15.006Z,98675.63
2023-03-25T21:41:41.516Z,98675.63
2023-03-25T21:44:08.023Z,98680.03
2023-03-25T21:46:36.639Z,98679.22
2023-03-25T21:49:03.818Z,98680.88
2023-03-25T21:51:30.824Z,98681.84
2023-03-25T21:53:58.490Z,98687.09
2023-03-25T21:56:27.218Z,98698.44
2023-03-25T21:58:53.802Z,98693.19
2023-03-25T22:01:28.412Z,98698.44
2023-03-25T22:04:00.822Z,98701.94
2023-03-25T22:06:29.817Z,98708.84
2023-03-25T22:09:03.612Z,98702.66
2023-03-25T22:11:30.332Z,98709.59
2023-03-25T22:13:57.296Z,98716.63
2023-03-25T22:16:24.481Z,98712.22
2023-03-25T22:18:51.585Z,98711.16
2023-03-25T22:21:20.837Z,98721.69
2023-03-25T22:23:49.143Z,98722.53
2023-03-25T22:26:17.483Z,98726.09
2023-03-25T22:28:44.679Z,98723.56
2023-03-25T22:31:13.857Z,98726.34
2023-03-25T22:33:41.019Z,98728.97
2023-03-25T22:36:12.635Z,98753.56
2023-03-25T22:38:44.424Z,98750.03
2023-03-25T22:41:12.677Z,98750.03
2023-03-25T22:43:39.473Z,98746.44
2023-03-25T22:46:07.224Z,98756.00
2023-03-25T22:48:34.714Z,98760.41
2023-03-25T22:51:01.275Z,98756.00
2023-03-25T22:53:28.025Z,98774.31
2023-03-25T22:55:56.638Z,98769.16
2023-03-25T22:58:26.020Z,98772.63
2023-03-25T23:00:53.840Z,98776.94
2023-03-25T23:03:22.822Z,98785.69
2023-03-25T23:06:05.816Z,98783.25
2023-03-25T23:08:35.669Z,98792.63
2023-03-25T23:11:14.469Z,98788.31
2023-03-25T23:13:45.411Z,98782.09
2023-03-25T23:16:14.464Z,98790.81
2023-03-25T23:18:42.003Z,98795.13
2023-03-25T23:21:11.999Z,98789.97
2023-03-25T23:23:38.654Z,98789.97
2023-03-25T23:26:26.345Z,98799.53
2023-03-25T23:28:54.615Z,98796.06
2023-03-25T23:31:28.110Z,98796.06
2023-03-25T23:33:58.258Z,98795.13
2023-03-25T23:36:26.267Z,98799.53
2023-03-25T23:38:53.513Z,98800.41
2023-03-25T23:41:25.531Z,98804.81
2023-03-25T23:43:53.657Z,98804.81
2023-03-25T23:46:21.353Z,98804.91
2023-03-25T23:48:48.596Z,98800.59
2023-03-25T23:51:18.052Z,98813.75
2023-03-25T23:53:47.046Z,98809.56
2023-03-25T23:56:15.737Z,98805.13
2023-03-25T23:58:42.500Z,98815.78
